sensor_id;sensor_type;location;lat;lon;timestamp;P1;durP1;ratioP1;P2;durP2;ratioP2
67500;SDS011;54349;52.528;19.760;2023-07-22T05:06:43;2.30;;;1.50;;
67500;SDS011;54349;52.528;19.760;2023-07-22T05:09:14;2.70;;;1.60;;
67500;SDS011;54349;52.528;19.760;2023-07-22T05:11:43;2.80;;;1.80;;
67500;SDS011;54349;52.528;19.760;2023-07-22T05:14:48;2.80;;;1.90;;
67500;SDS011;54349;52.528;19.760;2023-07-22T05:17:17;3.30;;;1.80;;
67500;SDS011;54349;52.528;19.760;2023-07-22T05:19:57;2.40;;;1.40;;
67500;SDS011;54349;52.528;19.760;2023-07-22T05:23:01;2.30;;;1.70;;
67500;SDS011;54349;52.528;19.760;2023-07-22T11:06:52;2.90;;;1.70;;
67500;SDS011;54349;52.528;19.760;2023-07-22T11:12:15;2.50;;;1.70;;
67500;SDS011;54349;52.528;19.760;2023-07-22T11:14:51;2.20;;;1.60;;
67500;SDS011;54349;52.528;19.760;2023-07-22T11:18:14;2.70;;;1.40;;
67500;SDS011;54349;52.528;19.760;2023-07-22T11:20:54;2.20;;;1.80;;
67500;SDS011;54349;52.528;19.760;2023-07-22T15:06:52;3.10;;;1.90;;
67500;SDS011;54349;52.528;19.760;2023-07-22T15:09:22;1.90;;;1.50;;
67500;SDS011;54349;52.528;19.760;2023-07-22T15:11:51;2.70;;;1.70;;
67500;SDS011;54349;52.528;19.760;2023-07-22T15:14:52;1.60;;;1.50;;
67500;SDS011;54349;52.528;19.760;2023-07-22T15:17:21;2.40;;;1.70;;
67500;SDS011;54349;52.528;19.760;2023-07-22T15:19:52;2.10;;;1.60;;
67500;SDS011;54349;52.528;19.760;2023-07-22T15:22:53;2.10;;;1.60;;
67500;SDS011;54349;52.528;19.760;2023-07-22T19:05:19;2.20;;;1.70;;
67500;SDS011;54349;52.528;19.760;2023-07-22T19:07:47;2.20;;;1.70;;
67500;SDS011;54349;52.528;19.760;2023-07-22T19:10:21;3.20;;;2.10;;
67500;SDS011;54349;52.528;19.760;2023-07-22T19:13:03;3.50;;;2.20;;
67500;SDS011;54349;52.528;19.760;2023-07-22T19:15:33;2.70;;;1.90;;
67500;SDS011;54349;52.528;19.760;2023-07-22T19:18:10;3.90;;;1.80;;
67500;SDS011;54349;52.528;19.760;2023-07-22T19:21:07;2.80;;;1.80;;
67500;SDS011;54349;52.528;19.760;2023-07-22T19:23:36;3.10;;;1.90;;
67500;SDS011;54349;52.528;19.760;2023-07-22T19:35:32;2.30;;;1.80;;
67500;SDS011;54349;52.528;19.760;2023-07-22T19:38:00;3.30;;;2.00;;
67500;SDS011;54349;52.528;19.760;2023-07-22T19:41:01;3.10;;;2.00;;
67500;SDS011;54349;52.528;19.760;2023-07-22T19:43:41;4.10;;;2.00;;
67500;SDS011;54349;52.528;19.760;2023-07-22T19:46:42;3.40;;;2.10;;
67500;SDS011;54349;52.528;19.760;2023-07-22T19:49:11;2.60;;;1.70;;
67500;SDS011;54349;52.528;19.760;2023-07-22T19:51:39;3.00;;;1.80;;
67500;SDS011;54349;52.528;19.760;2023-07-22T23:06:25;5.80;;;3.50;;
67500;SDS011;54349;52.528;19.760;2023-07-22T23:08:57;6.40;;;3.30;;
67500;SDS011;54349;52.528;19.760;2023-07-22T23:11:26;5.50;;;3.20;;
67500;SDS011;54349;52.528;19.760;2023-07-22T23:14:55;4.80;;;2.70;;
67500;SDS011;54349;52.528;19.760;2023-07-22T23:17:24;5.60;;;3.10;;
67500;SDS011;54349;52.528;19.760;2023-07-22T23:19:54;5.80;;;3.60;;
67500;SDS011;54349;52.528;19.760;2023-07-22T23:22:54;5.60;;;3.50;;
